Flight Track Log - Related Links

Times and Time Zones

All times are in EDT time to prevent confusion due to time zone crossing. See the UPS238 flight status page for this flight to view local times or setup timezone preferences in your user account.

Time Position Orientation Groundspeed Altitude Reporting Facility
EDT Latitude Longitude Course Direction KTS MPH feet Rate Location/Type
Thu 03:52:01 PM 51.8900 0.2470 North 13 15  Level FlightAware ADS-B
Thu 03:53:11 PM 51.8850 0.2400 221° Southwest 23 26 152 Level FlightAware ADS-B
Thu 03:53:31 PM 51.8830 0.2370 223° Southwest 21 24 185 Level FlightAware ADS-B
Thu 03:54:11 PM 51.8810 0.2330 231° Southwest 19 22 197 Level FlightAware ADS-B
Thu 03:54:51 PM 51.8780 0.2290 219° Southwest 19 22 226 Level FlightAware ADS-B
Thu 03:55:36 PM 51.8750 0.2240 226° Southwest 16 18 267 Level FlightAware ADS-B
Thu 03:55:59 PM 51.8740 0.2230 212° Southwest 14 16 333 Level FlightAware ADS-B
Thu 03:56:21 PM 51.8750 0.2210 309° West 10 12 382 Level FlightAware ADS-B
Thu 03:56:46 PM 51.8750 0.2200 270° West 4 5 444 Level FlightAware ADS-B
Thu 03:57:41 PM 51.8760 0.2210 32° Northeast 27 31 545 Level FlightAware ADS-B
Thu 03:58:11 PM 51.8870 0.2380 44° Northeast 159 183 1,091 Level FlightAware ADS-B
Thu 03:58:36 PM 51.9020 0.2610 43° Northeast 181 208 1,000 2,933 Climbing FlightAware ADS-B
Thu 03:58:56 PM 51.9140 0.2790 43° Northeast 172 198 2,200 2,800 Climbing FlightAware ADS-B
Thu 03:59:21 PM 51.9310 0.3010 39° Northeast 179 206 3,100 1,800 Climbing FlightAware ADS-B
Thu 03:59:36 PM 51.9420 0.3020 North 185 213 3,400 1,200 Climbing FlightAware ADS-B
Thu 03:59:51 PM 51.9550 0.2870 325° Northwest 215 247 3,700 1,200 Climbing FlightAware ADS-B
Thu 04:00:01 PM 51.9600 0.2720 298° West 237 273 3,900 1,440 Climbing FlightAware ADS-B
Thu 04:00:16 PM 51.9650 0.2480 289° West 244 281 4,300 1,200 Climbing FlightAware ADS-B
Thu 04:00:41 PM 51.9730 0.1990 289° West 275 316 4,700 750 Climbing FlightAware ADS-B
Thu 04:00:48 PM 51.9755 0.1822 289° West 272 313 4,700 960 Level FlightAware UK
Thu 04:01:06 PM 51.9800 0.1490 289° West 288 331 5,100 1,250 Climbing FlightAware ADS-B
Thu 04:01:12 PM 51.9811 0.1310 289° West 290 334 5,200 1,500 Climbing FlightAware UK
Thu 04:01:26 PM 51.9771 0.0989 265° West 321 369 5,600 3,103 Climbing FlightAware ADS-B
Thu 04:01:41 PM 51.9684 0.0642 248° West 310 357 6,700 3,643 Climbing FlightAware ADS-B
Thu 04:01:54 PM 51.9617 0.0367 248° West 310 357 7,300 2,571 Climbing FlightAware ADS-B
Thu 04:02:09 PM 51.9538 0.0040 249° West 313 360 7,900 2,516 Climbing FlightAware ADS-B
Thu 04:02:25 PM 51.9453 -0.0310 249° West 315 362 8,600 2,516 Climbing FlightAware ADS-B
Thu 04:02:40 PM 51.9374 -0.0636 249° West 317 365 9,200 2,600 Climbing FlightAware ADS-B
Thu 04:02:55 PM 51.9295 -0.0968 249° West 317 365 9,900 2,087 Climbing FlightAware ADS-B
Thu 04:03:26 PM 51.9132 -0.1661 249° West 335 386 10,800 1,574 Climbing FlightAware ADS-B
Thu 04:03:56 PM 51.8957 -0.2408 249° West 365 420 11,500 1,279 Climbing FlightAware ADS-B
Thu 04:04:27 PM 51.8767 -0.3225 249° West 395 455 12,100 1,574 Climbing FlightAware ADS-B
Thu 04:04:57 PM 51.8567 -0.4104 250° West 413 475 13,100 2,459 Climbing FlightAware ADS-B
Thu 04:05:28 PM 51.8364 -0.4988 250° West 416 479 14,600 2,852 Climbing FlightAware ADS-B
Thu 04:05:58 PM 51.8156 -0.5879 249° West 420 483 16,000 2,600 Climbing FlightAware ADS-B
Thu 04:06:28 PM 51.7947 -0.6775 249° West 426 490 17,200 2,419 Climbing FlightAware ADS-B
Thu 04:07:00 PM 51.7727 -0.7703 249° West 429 494 18,500 2,419 Climbing FlightAware ADS-B
Thu 04:07:30 PM 51.7508 -0.8603 249° West 433 498 19,700 2,300 Climbing FlightAware ADS-B
Thu 04:08:00 PM 51.7280 -0.9532 248° West 438 504 20,800 1,377 Climbing FlightAware ADS-B
Thu 04:08:31 PM 51.7050 -1.0455 248° West 443 510 21,100 1,258 Climbing FlightAware ADS-B
Thu 04:09:02 PM 51.6812 -1.1413 248° West 444 511 22,100 1,869 Climbing FlightAware ADS-B
Thu 04:09:32 PM 51.6580 -1.2354 248° West 451 519 23,000 1,837 Climbing FlightAware ADS-B
Thu 04:09:51 PM 51.6440 -1.2948 249° West 454 522 23,600 1,857 Climbing FlightAware ADS-B
Thu 04:10:14 PM 51.6325 -1.3708 256° West 456 525 24,300 1,696 Climbing FlightAware ADS-B
Thu 04:10:37 PM 51.6299 -1.4481 267° West 458 527 24,900 1,600 Climbing FlightAware ADS-B
Thu 04:10:44 PM 51.6311 -1.4714 275° West 459 528 25,100 1,622 Climbing FlightAware ADS-B
Thu 04:11:14 PM 51.6392 -1.5747 277° West 463 533 25,900 1,574 Climbing FlightAware ADS-B
Thu 04:11:45 PM 51.6478 -1.6789 278° West 466 536 26,700 1,967 Climbing FlightAware ADS-B
Thu 04:12:15 PM 51.6570 -1.7840 278° West 460 529 27,900 2,149 Climbing FlightAware ADS-B
Thu 04:12:52 PM 51.6680 -1.9095 278° West 459 528 29,100 1,826 Climbing FlightAware ADS-B
Thu 04:13:24 PM 51.6771 -2.0156 278° West 457 526 30,000 1,161 Climbing FlightAware ADS-B
Thu 04:13:54 PM 51.6857 -2.1178 278° West 458 527 30,300 1,200 Climbing FlightAware ADS-B
Thu 04:14:24 PM 51.6941 -2.2192 278° West 454 522 31,200 1,574 Climbing FlightAware ADS-B
Thu 04:14:55 PM 51.7025 -2.3237 277° West 453 521 31,900 1,355 Climbing FlightAware ADS-B
Thu 04:15:26 PM 51.7107 -2.4257 277° West 451 519 32,600 1,355 Climbing FlightAware ADS-B
Thu 04:15:57 PM 51.7187 -2.5274 277° West 447 514 33,300 1,180 Climbing FlightAware ADS-B
Thu 04:16:27 PM 51.7264 -2.6267 277° West 447 514 33,800 800 Climbing FlightAware ADS-B
Thu 04:16:57 PM 51.7340 -2.7289 277° West 449 517 34,100 295 Climbing FlightAware ADS-B
Thu 04:17:28 PM 51.7415 -2.8313 277° West 448 516 34,100  Level FlightAware ADS-B
Thu 04:17:59 PM 51.7490 -2.9350 277° West 448 516 34,100  Level FlightAware ADS-B
Thu 04:18:30 PM 51.7560 -3.0310 277° West 448 516 34,100  Level FlightAware ADS-B
Thu 04:18:47 PM 51.7604 -3.0926 277° West 448 516 34,100  Level FlightAware ADS-B
Thu 04:19:54 PM 51.7760 -3.3142 277° West 448 516 34,100  Level FlightAware ADS-B
Thu 04:20:40 PM 51.7865 -3.4670 276° West 448 516 34,100  Level FlightAware ADS-B
Thu 04:21:22 PM 51.7960 -3.6076 276° West 448 516 34,100  Level FlightAware ADS-B
Thu 04:21:59 PM 51.8040 -3.7240 276° West 449 517 34,100  Level FlightAware ADS-B
Thu 04:22:33 PM 51.8110 -3.8350 276° West 449 517 34,100  Level FlightAware ADS-B
Thu 04:23:19 PM 51.8210 -3.9910 276° West 450 518 34,100 -71 Level FlightAware ADS-B
Thu 04:23:57 PM 51.8293 -4.1258 276° West 462 532 34,000  Descending FlightAware UK
Thu 04:23:57 PM 51.8290 -4.1180 276° West 450 518 34,100  Climbing FlightAware ADS-B
Thu 04:24:27 PM 51.8356 -4.2263 276° West 462 532 34,000  Descending FlightAware UK
Thu 04:24:28 PM 51.8360 -4.2260 276° West 450 518 34,100  Climbing FlightAware ADS-B
Thu 04:25:03 PM 51.8428 -4.3464 276° West 462 532 34,000  Descending FlightAware UK
Thu 04:25:19 PM 51.8460 -4.3970 276° West 451 519 34,100 107 Climbing FlightAware ADS-B
Thu 04:25:59 PM 51.8540 -4.5320 276° West 450 518 34,100 -81 Level FlightAware ADS-B
Thu 04:26:33 PM 51.8606 -4.6486 276° West 464 534 34,000  Descending FlightAware UK
Thu 04:26:35 PM 51.8610 -4.6540 276° West 450 518 34,100 143 Climbing FlightAware ADS-B
Thu 04:27:15 PM 51.8690 -4.7880 276° West 451 519 34,100  Level FlightAware ADS-B
Thu 04:27:55 PM 51.8760 -4.9220 275° West 451 519 34,100  Level FlightAware ADS-B
Thu 04:28:33 PM 51.8830 -5.0510 275° West 451 519 34,100 -81 Level FlightAware ADS-B
Thu 04:29:09 PM 51.8898 -5.1724 275° West 462 532 34,000  Descending FlightAware UK
Thu 04:29:17 PM 51.8910 -5.1990 275° West 451 519 34,100 125 Climbing FlightAware ADS-B
Thu 04:29:57 PM 51.8980 -5.3340 275° West 451 519 34,100  Level FlightAware ADS-B
Thu 04:30:37 PM 51.9050 -5.4700 275° West 452 520 34,100 -143 Level FlightAware ADS-B
Thu 04:30:39 PM 51.9051 -5.4755 275° West 462 532 34,000 -188 Descending FlightAware UK
Thu 04:31:09 PM 51.9103 -5.5767 275° West 460 529 34,000 150 Level FlightAware UK
Thu 04:31:19 PM 51.9120 -5.6110 275° West 453 521 34,100 111 Climbing FlightAware ADS-B
Thu 04:32:03 PM 51.9200 -5.7630 275° West 459 528 34,100 -75 Level FlightAware ADS-B
Thu 04:32:39 PM 51.9250 -5.8839 275° West 468 539 34,000  Descending FlightAware UK
Thu 04:32:45 PM 51.9260 -5.9000 275° West 462 532 34,100 158 Climbing FlightAware ADS-B
Thu 04:33:17 PM 51.9310 -6.0150 274° West 463 533 34,100  Level FlightAware ADS-B
Thu 04:34:01 PM 51.9380 -6.1680 274° West 465 535 34,100 -68 Level FlightAware ADS-B
Thu 04:34:45 PM 51.9448 -6.3206 274° West 466 536 34,000  Descending FlightAware UK
Thu 04:34:45 PM 51.9450 -6.3200 274° West 468 539 34,100  Climbing FlightAware ADS-B
Thu 04:35:15 PM 51.9491 -6.4256 274° West 466 536 34,000  Descending FlightAware UK
Thu 04:35:25 PM 51.9510 -6.4570 274° West 470 541 34,100 120 Climbing FlightAware ADS-B
Thu 04:36:05 PM 51.9570 -6.6030 274° West 471 542 34,100 -75 Level FlightAware ADS-B
Thu 04:36:45 PM 51.9625 -6.7431 274° West 468 539 34,000  Descending FlightAware UK
Thu 04:36:49 PM 51.9630 -6.7570 274° West 473 544 34,100 125 Climbing FlightAware ADS-B
Thu 04:37:33 PM 51.9690 -6.9130 274° West 475 547 34,100  Level FlightAware ADS-B
Thu 04:38:09 PM 51.9740 -7.0420 274° West 476 548 34,100 -143 Level FlightAware ADS-B
Thu 04:38:15 PM 51.9750 -7.0635 274° West 470 541 34,000  Descending FlightAware UK
Thu 04:38:48 PM 51.9790 -7.1780 274° West 477 549 34,100  Climbing FlightAware ADS-B
Thu 04:38:50 PM 51.9794 -7.1915 274° West 468 539 34,000 -188 Descending FlightAware UK
Thu 04:39:20 PM 51.9831 -7.2988 274° West 470 541 34,000 154 Level FlightAware UK
Thu 04:39:29 PM 51.9840 -7.3200 274° West 478 550 34,100 122 Climbing FlightAware ADS-B
Thu 04:40:09 PM 51.9890 -7.4720 273° West 479 551 34,100  Level FlightAware ADS-B
Thu 04:40:46 PM 51.9930 -7.5890 273° West 481 554 34,100 -85 Level FlightAware ADS-B
Thu 04:41:20 PM 51.9971 -7.7304 273° West 468 539 34,000  Descending FlightAware UK
Thu 04:41:29 PM 51.9980 -7.7570 273° West 482 555 34,100 122 Climbing FlightAware ADS-B
Thu 04:42:09 PM 52.0030 -7.8980 273° West 483 556 34,100  Level FlightAware ADS-B
Thu 04:42:49 PM 52.0070 -8.0450 273° West 485 558 34,100 -146 Level FlightAware ADS-B
Thu 04:42:50 PM 52.0072 -8.0566 273° West 466 536 34,000 -194 Descending FlightAware UK
Thu 04:43:20 PM 52.0100 -8.1657 273° West 468 539 34,000 133 Level FlightAware UK
Thu 04:43:35 PM 52.0120 -8.2100 273° West 486 559 34,100 111 Climbing FlightAware ADS-B
Thu 04:44:14 PM 52.0160 -8.3580 273° West 488 562 34,100 -74 Level FlightAware ADS-B
Thu 04:44:56 PM 52.0193 -8.5159 273° West 468 539 34,000  Descending FlightAware UK
Thu 04:45:00 PM 52.0190 -8.5150 273° West 489 563 34,100 146 Climbing FlightAware ADS-B
Thu 04:45:37 PM 52.0230 -8.6600 273° West 490 564 34,100  Level FlightAware ADS-B
Thu 04:46:18 PM 52.0260 -8.8090 272° West 491 565 34,100 -76 Level FlightAware ADS-B
Thu 04:46:56 PM 52.0296 -8.9577 272° West 474 545 34,000  Descending FlightAware UK
Thu 04:46:57 PM 52.0290 -8.9480 272° West 490 564 34,100 167 Climbing FlightAware ADS-B
Thu 04:47:32 PM 52.0320 -9.0840 272° West 491 565 34,100  Level FlightAware ADS-B
Thu 04:48:11 PM 52.0350 -9.2270 272° West 490 564 34,100  Level FlightAware ADS-B
Thu 04:48:52 PM 52.0370 -9.3770 271° West 489 563 34,100  Level FlightAware ADS-B
Thu 04:49:32 PM 52.0400 -9.5150 272° West 488 562 34,100  Level FlightAware ADS-B
Thu 04:50:12 PM 52.0420 -9.6660 271° West 487 560 34,100  Level FlightAware ADS-B
Thu 04:50:52 PM 52.0440 -9.8070 271° West 486 559 34,100  Level FlightAware ADS-B
Thu 04:51:37 PM 52.0460 -9.9750 271° West 485 558 34,100  Level FlightAware ADS-B
Thu 04:52:22 PM 52.0480 -10.1470 271° West 484 557 34,100  Level FlightAware ADS-B
Thu 04:53:02 PM 52.0500 -10.2920 271° West 483 556 34,100  Level FlightAware ADS-B
Thu 04:53:42 PM 52.0510 -10.4320 271° West 482 555 34,100  Level FlightAware ADS-B
Thu 04:54:27 PM 52.0520 -10.5970 271° West 481 554 34,100  Level FlightAware ADS-B
Thu 04:55:07 PM 52.0530 -10.7370 271° West 481 554 34,100  Level FlightAware ADS-B
Thu 04:55:52 PM 52.0540 -10.9020 271° West 480 552 34,100  Level FlightAware ADS-B
Thu 04:56:32 PM 52.0540 -11.0380 270° West 479 551 34,100  Level FlightAware ADS-B
Thu 04:57:17 PM 52.0550 -11.2020 271° West 478 550 34,100  Level FlightAware ADS-B
Thu 04:57:57 PM 52.0550 -11.3480 270° West 478 550 34,100  Level FlightAware ADS-B
Thu 04:58:47 PM 52.0550 -11.5160 270° West 477 549 34,100  Level FlightAware ADS-B
Thu 04:59:32 PM 52.0550 -11.6930 270° West 477 549 34,100  Level FlightAware ADS-B
Thu 05:00:27 PM 52.0540 -11.8770 270° West 476 548 34,100  Level FlightAware ADS-B
Thu 05:01:12 PM 52.0530 -12.0240 269° West 476 548 34,100  Level FlightAware ADS-B
Thu 05:01:45 PM 52.0520 -12.1480 269° West 476 548 34,100  Level FlightAware ADS-B
Thu 05:02:22 PM 52.0510 -12.2600 269° West 476 548 34,100  Level FlightAware ADS-B
Thu 05:03:10 PM 52.0490 -12.4060 269° West 476 548 34,100  Level FlightAware ADS-B
Thu 05:03:46 PM 52.0480 -12.5160 269° West 476 548 34,100  Level FlightAware ADS-B
Thu 05:04:23 PM 52.0470 -12.6290 269° West 476 548 34,100  Level FlightAware ADS-B
Thu 05:05:11 PM 52.0450 -12.7750 269° West 476 548 34,100  Level FlightAware ADS-B
Thu 05:05:45 PM 52.0440 -12.8780 269° West 476 548 34,100  Level FlightAware ADS-B
Thu 05:06:33 PM 52.0430 -13.0240 269° West 476 548 34,100  Level FlightAware ADS-B
Thu 05:07:09 PM 52.0410 -13.1340 268° West 476 548 34,100  Level FlightAware ADS-B
Thu 05:07:57 PM 52.0400 -13.2800 269° West 476 548 34,100  Level FlightAware ADS-B
Thu 05:08:34 PM 52.0390 -13.3920 269° West 476 548 34,100  Level FlightAware ADS-B
Thu 05:09:23 PM 52.0370 -13.5410 269° West 476 548 34,100  Level FlightAware ADS-B
Thu 05:09:59 PM 52.0360 -13.6510 269° West 476 548 34,100  Level FlightAware ADS-B
Thu 05:10:47 PM 52.0340 -13.7970 269° West 476 548 34,100 -71 Level FlightAware ADS-B
Thu 05:13:00 PM 52.0967 -14.2075 284° West  Level Estimated
Thu 05:14:00 PM 52.1246 -14.3931 284° West  Level Estimated
Thu 05:15:00 PM 52.1521 -14.5789 284° West  Level Estimated
Thu 05:16:00 PM 52.1794 -14.7650 284° West  Level Estimated
Thu 05:17:00 PM 52.2064 -14.9512 283° West  Level Estimated
Thu 05:18:00 PM 52.2330 -15.1377 283° West  Level Estimated
Thu 05:19:00 PM 52.2594 -15.3244 283° West  Level Estimated
Thu 05:20:00 PM 52.2855 -15.5113 283° West  Level Estimated
Thu 05:21:00 PM 52.3113 -15.6985 283° West  Level Estimated
Thu 05:22:00 PM 52.3368 -15.8859 283° West  Level Estimated
Thu 05:23:00 PM 52.3620 -16.0735 282° West  Level Estimated
Thu 05:24:00 PM 52.3869 -16.2612 282° West  Level Estimated
Thu 05:25:00 PM 52.4115 -16.4493 282° West  Level Estimated
Thu 05:26:00 PM 52.4358 -16.6375 282° West  Level Estimated
Thu 05:27:00 PM 52.4598 -16.8259 282° West  Level Estimated
Thu 05:28:00 PM 52.4835 -17.0145 282° West  Level Estimated
Thu 05:29:00 PM 52.5069 -17.2034 282° West  Level Estimated
Thu 05:30:00 PM 52.5300 -17.3924 281° West  Level Estimated
Thu 05:31:00 PM 52.5528 -17.5816 281° West  Level Estimated
Thu 05:32:00 PM 52.5753 -17.7710 281° West  Level Estimated
Thu 05:33:00 PM 52.5975 -17.9607 281° West  Level Estimated
Thu 05:34:00 PM 52.6193 -18.1505 281° West  Level Estimated
Thu 05:35:00 PM 52.6409 -18.3405 281° West  Level Estimated
Thu 05:36:00 PM 52.6622 -18.5306 281° West  Level Estimated
Thu 05:37:00 PM 52.6832 -18.7210 280° West  Level Estimated
Thu 05:38:00 PM 52.7039 -18.9116 280° West  Level Estimated
Thu 05:39:00 PM 52.7242 -19.1023 280° West  Level Estimated
Thu 05:39:31 PM 52.0000 -20.0000 274° West 442 509 32,000  Level ETMS Enhanced Traffic Management System
Thu 05:40:00 PM 52.7443 -19.2932 280° West  Level Estimated
Thu 05:41:00 PM 52.7640 -19.4843 280° West  Level Estimated
Thu 05:42:00 PM 52.7835 -19.6755 280° West  Level Estimated
Thu 05:43:00 PM 52.8026 -19.8669 279° West  Level Estimated
Thu 05:44:00 PM 52.8215 -20.0585 279° West  Level Estimated
Thu 05:45:00 PM 52.0447 -21.1975 273° West 442 509 32,000  Level FlightAware Transoceanic
Thu 05:46:00 PM 52.0510 -21.3973 273° West 442 509 32,000  Level FlightAware Transoceanic
Thu 05:47:00 PM 52.0569 -21.5971 273° West 442 509 32,000  Level FlightAware Transoceanic
Thu 05:48:00 PM 52.0625 -21.7970 273° West 442 509 32,000  Level FlightAware Transoceanic
Thu 05:49:00 PM 52.0678 -21.9970 272° West 442 509 32,000  Level FlightAware Transoceanic
Thu 05:50:00 PM 52.0727 -22.1970 272° West 442 509 32,000  Level FlightAware Transoceanic
Thu 05:51:00 PM 52.0773 -22.3970 272° West 442 509 32,000  Level FlightAware Transoceanic
Thu 05:52:00 PM 52.0815 -22.5971 272° West 442 509 32,000  Level FlightAware Transoceanic
Thu 05:53:00 PM 52.0854 -22.7972 272° West 442 509 32,000  Level FlightAware Transoceanic
Thu 05:54:00 PM 52.0890 -22.9973 272° West 442 509 32,000  Level FlightAware Transoceanic
Thu 05:55:00 PM 52.0922 -23.1975 271° West 442 509 32,000  Level FlightAware Transoceanic
Thu 05:56:00 PM 52.0951 -23.3977 271° West 442 509 32,000  Level FlightAware Transoceanic
Thu 05:57:00 PM 52.0976 -23.5980 271° West 442 509 32,000  Level FlightAware Transoceanic
Thu 05:58:00 PM 52.0998 -23.7982 271° West 442 509 32,000  Level FlightAware Transoceanic
Thu 05:59:00 PM 52.1017 -23.9985 271° West 442 509 32,000  Level FlightAware Transoceanic
Thu 06:00:00 PM 52.1032 -24.1988 271° West 442 509 32,000  Level FlightAware Transoceanic
Thu 06:01:00 PM 52.1044 -24.3991 270° West 442 509 32,000  Level FlightAware Transoceanic
Thu 06:02:00 PM 52.1053 -24.5994 270° West 442 509 32,000  Level FlightAware Transoceanic
Thu 06:03:00 PM 52.1058 -24.7997 270° West 442 509 32,000  Level FlightAware Transoceanic
Thu 06:04:00 PM 52.1059 -25.0000 270° West 442 509 32,000  Level FlightAware Transoceanic
Thu 06:05:00 PM 52.1058 -25.2003 270° West 442 509 32,000  Level FlightAware Transoceanic
Thu 06:06:00 PM 52.1053 -25.4006 270° West 442 509 32,000  Level FlightAware Transoceanic
Thu 06:07:00 PM 52.1044 -25.6009 270° West 442 509 32,000  Level FlightAware Transoceanic
Thu 06:08:00 PM 52.1032 -25.8012 269° West 442 509 32,000  Level FlightAware Transoceanic
Thu 06:09:00 PM 52.1017 -26.0015 269° West 442 509 32,000  Level FlightAware Transoceanic
Thu 06:10:00 PM 52.0998 -26.2018 269° West 442 509 32,000  Level FlightAware Transoceanic
Thu 06:11:00 PM 52.0976 -26.4020 269° West 442 509 32,000  Level FlightAware Transoceanic
Thu 06:12:00 PM 52.0951 -26.6023 269° West 442 509 32,000  Level FlightAware Transoceanic
Thu 06:13:00 PM 52.0922 -26.8025 269° West 442 509 32,000  Level FlightAware Transoceanic
Thu 06:14:00 PM 52.0890 -27.0027 268° West 442 509 32,000  Level FlightAware Transoceanic
Thu 06:15:00 PM 52.0854 -27.2028 268° West 442 509 32,000  Level FlightAware Transoceanic
Thu 06:16:00 PM 52.0815 -27.4029 268° West 442 509 32,000  Level FlightAware Transoceanic
Thu 06:17:00 PM 52.0773 -27.6030 268° West 442 509 32,000  Level FlightAware Transoceanic
Thu 06:18:00 PM 52.0727 -27.8030 268° West 442 509 32,000  Level FlightAware Transoceanic
Thu 06:19:00 PM 52.0678 -28.0030 268° West 442 509 32,000  Level FlightAware Transoceanic
Thu 06:20:00 PM 52.0625 -28.2030 267° West 442 509 32,000  Level FlightAware Transoceanic
Thu 06:21:00 PM 52.0569 -28.4029 267° West 442 509 32,000  Level FlightAware Transoceanic
Thu 06:22:00 PM 52.0510 -28.6027 267° West 442 509 32,000  Level FlightAware Transoceanic
Thu 06:23:00 PM 52.0447 -28.8025 267° West 442 509 32,000  Level FlightAware Transoceanic
Thu 06:24:00 PM 52.0381 -29.0023 267° West 442 509 32,000  Level FlightAware Transoceanic
Thu 06:25:00 PM 52.0312 -29.2020 267° West 442 509 32,000  Level FlightAware Transoceanic
Thu 06:26:00 PM 52.0239 -29.4016 267° West 442 509 32,000  Level FlightAware Transoceanic
Thu 06:27:00 PM 52.0163 -29.6011 266° West 442 509 32,000  Level FlightAware Transoceanic
Thu 06:28:00 PM 52.0083 -29.8006 266° West 442 509 32,000 Level FlightAware Transoceanic
Thu 06:29:00 PM 52.0141 -29.9910 273° West  Level Estimated
Thu 06:30:00 PM 52.0197 -30.1814 273° West  Level Estimated
Thu 06:31:00 PM 52.0249 -30.3718 273° West  Level Estimated
Thu 06:32:00 PM 52.0299 -30.5624 272° West  Level Estimated
Thu 06:33:00 PM 52.0345 -30.7529 272° West  Level Estimated
Thu 06:34:00 PM 52.0388 -30.9435 272° West  Level Estimated
Thu 06:35:00 PM 52.0429 -31.1341 272° West  Level Estimated
Thu 06:36:00 PM 52.0466 -31.3248 272° West  Level Estimated
Thu 06:37:00 PM 52.0500 -31.5155 272° West  Level Estimated
Thu 06:38:00 PM 52.0531 -31.7062 272° West  Level Estimated
Thu 06:39:00 PM 52.0558 -31.8969 271° West  Level Estimated
Thu 06:40:00 PM 52.0583 -32.0877 271° West  Level Estimated
Thu 06:41:00 PM 52.0605 -32.2785 271° West  Level Estimated
Thu 06:42:00 PM 52.0623 -32.4693 271° West  Level Estimated
Thu 06:43:00 PM 52.0639 -32.6601 271° West  Level Estimated
Thu 06:44:00 PM 52.0651 -32.8509 271° West  Level Estimated
Thu 06:45:00 PM 52.0661 -33.0418 271° West  Level Estimated
Thu 06:46:00 PM 52.0667 -33.2326 270° West  Level Estimated
Thu 06:47:00 PM 52.0670 -33.4234 270° West  Level Estimated
Thu 06:48:00 PM 52.0670 -33.6143 270° West  Level Estimated
Thu 06:49:00 PM 52.0667 -33.8051 270° West  Level Estimated
Thu 06:50:00 PM 52.0661 -33.9960 270° West  Level Estimated
Thu 06:51:00 PM 52.0652 -34.1868 270° West  Level Estimated
Thu 06:52:00 PM 52.0640 -34.3777 269° West  Level Estimated
Thu 06:53:00 PM 52.0625 -34.5685 269° West  Level Estimated
Thu 06:54:00 PM 52.0606 -34.7593 269° West  Level Estimated
Thu 06:55:00 PM 52.0585 -34.9501 269° West  Level Estimated
Thu 06:56:00 PM 52.0560 -35.1408 269° West  Level Estimated
Thu 06:57:00 PM 52.0533 -35.3316 269° West  Level Estimated
Thu 06:58:00 PM 52.0502 -35.5223 269° West  Level Estimated
Thu 06:59:00 PM 52.0468 -35.7130 268° West  Level Estimated
Thu 07:00:00 PM 52.0431 -35.9036 268° West  Level Estimated
Thu 07:01:00 PM 52.0391 -36.0942 268° West  Level Estimated
Thu 07:02:00 PM 52.0348 -36.2848 268° West  Level Estimated
Thu 07:03:00 PM 52.0302 -36.4754 268° West  Level Estimated
Thu 07:04:00 PM 52.0253 -36.6659 268° West  Level Estimated
Thu 07:05:00 PM 52.0201 -36.8564 268° West  Level Estimated
Thu 07:06:00 PM 52.0145 -37.0468 267° West  Level Estimated
Thu 07:07:00 PM 52.0087 -37.2372 267° West  Level Estimated
Thu 07:08:00 PM 52.0026 -37.4275 267° West  Level Estimated
Thu 07:09:00 PM 51.9961 -37.6178 267° West  Level Estimated
Thu 07:10:00 PM 51.9894 -37.8080 267° West  Level Estimated
Thu 07:11:00 PM 51.9823 -37.9981 267° West  Level Estimated
Thu 07:12:00 PM 51.9749 -38.1882 266° West  Level Estimated
Thu 07:13:00 PM 51.9673 -38.3783 266° West  Level Estimated
Thu 07:14:00 PM 51.9593 -38.5682 266° West  Level Estimated
Thu 07:15:00 PM 51.9510 -38.7581 266° West  Level Estimated
Thu 07:16:00 PM 51.9424 -38.9480 266° West  Level Estimated
Thu 07:17:00 PM 51.9335 -39.1377 266° West  Level Estimated
Thu 07:18:00 PM 51.9243 -39.3274 266° West  Level Estimated
Thu 07:19:00 PM 51.9148 -39.5170 265° West  Level Estimated
Thu 07:20:00 PM 51.9050 -39.7065 265° West  Level Estimated
Thu 07:21:00 PM 51.8949 -39.8959 265° West  Level Estimated
Thu 07:22:00 PM 51.8844 -40.0853 265° West  Level Estimated
Thu 07:23:00 PM 51.8737 -40.2745 265° West  Level Estimated
Thu 07:24:00 PM 51.8627 -40.4637 265° West  Level Estimated
Thu 07:25:00 PM 51.8514 -40.6527 265° West  Level Estimated
Thu 07:26:00 PM 51.8397 -40.8417 264° West  Level Estimated
Thu 07:27:00 PM 51.8278 -41.0306 264° West  Level Estimated
Thu 07:28:00 PM 51.8156 -41.2193 264° West  Level Estimated
Thu 07:29:00 PM 51.8030 -41.4080 264° West  Level Estimated
Thu 07:30:00 PM 51.7902 -41.5966 264° West  Level Estimated
Thu 07:31:00 PM 51.7771 -41.7850 264° West  Level Estimated
Thu 07:32:00 PM 51.7636 -41.9734 263° West  Level Estimated
Thu 07:33:00 PM 51.7499 -42.1616 263° West  Level Estimated
Thu 07:34:00 PM 51.7358 -42.3497 263° West  Level Estimated
Thu 07:35:00 PM 51.7215 -42.5377 263° West  Level Estimated
Thu 07:36:00 PM 51.7068 -42.7256 263° West  Level Estimated
Thu 07:37:00 PM 51.6919 -42.9133 263° West  Level Estimated
Thu 07:38:00 PM 51.6767 -43.1010 263° West  Level Estimated
Thu 07:39:00 PM 51.6611 -43.2885 262° West  Level Estimated
Thu 07:40:00 PM 51.6453 -43.4758 262° West  Level Estimated
Thu 07:41:00 PM 51.6292 -43.6631 262° West  Level Estimated
Thu 07:42:00 PM 51.6127 -43.8502 262° West  Level Estimated
Thu 07:43:00 PM 51.5960 -44.0371 262° West  Level Estimated
Thu 07:44:00 PM 51.5789 -44.2240 262° West  Level Estimated
Thu 07:45:00 PM 51.5616 -44.4107 262° West  Level Estimated
Thu 07:46:00 PM 51.5440 -44.5972 261° West  Level Estimated
Thu 07:47:00 PM 51.5261 -44.7836 261° West  Level Estimated
Thu 07:48:00 PM 51.5079 -44.9698 261° West  Level Estimated
Thu 07:49:00 PM 51.4894 -45.1559 261° West  Level Estimated
Thu 07:50:00 PM 51.4706 -45.3419 261° West  Level Estimated
Thu 07:51:00 PM 51.4515 -45.5277 261° West  Level Estimated
Thu 07:52:00 PM 51.4321 -45.7133 261° West  Level Estimated
Thu 07:53:00 PM 51.4124 -45.8988 260° West  Level Estimated
Thu 07:54:00 PM 51.3924 -46.0841 260° West  Level Estimated
Thu 07:55:00 PM 51.3722 -46.2693 260° West  Level Estimated
Thu 07:56:00 PM 51.3516 -46.4543 260° West  Level Estimated
Thu 07:57:00 PM 51.3307 -46.6391 260° West  Level Estimated
Thu 07:58:00 PM 51.3096 -46.8237 260° West  Level Estimated
Thu 07:59:00 PM 51.2882 -47.0082 260° West  Level Estimated
Thu 08:00:00 PM 51.2664 -47.1925 259° West  Level Estimated
Thu 08:01:00 PM 51.2444 -47.3767 259° West  Level Estimated
Thu 08:02:00 PM 51.2221 -47.5606 259° West  Level Estimated
Thu 08:03:00 PM 51.1996 -47.7444 259° West  Level Estimated
Thu 08:04:00 PM 51.1767 -47.9280 259° West  Level Estimated
Thu 08:05:00 PM 51.1535 -48.1114 259° West  Level Estimated
Thu 08:06:00 PM 51.1301 -48.2946 259° West  Level Estimated
Thu 08:07:00 PM 51.1063 -48.4777 258° West  Level Estimated
Thu 08:08:00 PM 51.0823 -48.6605 258° West  Level Estimated
Thu 08:09:00 PM 51.0580 -48.8432 258° West  Level Estimated
Thu 08:10:00 PM 51.0334 -49.0257 258° West  Level Estimated
Thu 08:11:00 PM 51.0086 -49.2079 258° West  Level Estimated
Thu 08:12:00 PM 50.9834 -49.3900 258° West  Level Estimated
Thu 08:13:00 PM 50.9580 -49.5719 258° West  Level Estimated
Thu 08:14:00 PM 50.9323 -49.7536 257° West  Level Estimated
Thu 08:15:00 PM 50.9063 -49.9350 257° West  Level Estimated
Thu 08:16:00 PM 50.8800 -50.1163 257° West  Level Estimated
Thu 08:17:00 PM 50.8534 -50.2974 257° West  Level Estimated
Thu 08:18:00 PM 50.8266 -50.4782 257° West  Level Estimated
Thu 08:19:00 PM 50.7995 -50.6589 257° West  Level Estimated
Thu 08:20:00 PM 50.7714 -50.8437 257° West  Level Estimated
Thu 08:20:41 PM 46.8880 -50.9100 256° West 485 558 32,100  Level FlightAware ADS-B
Thu 08:21:00 PM 50.7430 -51.0282 256° West  Level Estimated
Thu 08:21:24 PM 46.8700 -51.0510 259° West 486 559 32,100  Level FlightAware ADS-B
Thu 08:22:04 PM 46.8540 -51.1790 260° West 493 567 32,500 988 Climbing FlightAware ADS-B
Thu 08:22:49 PM 46.8340 -51.3290 259° West 497 572 33,500 1,129 Climbing FlightAware ADS-B
Thu 08:23:29 PM 46.8180 -51.4560 260° West 496 571 34,100 450 Climbing FlightAware ADS-B
Thu 08:24:09 PM 46.8000 -51.5900 259° West 496 571 34,100  Level FlightAware ADS-B
Thu 08:24:54 PM 46.7810 -51.7290 259° West 496 571 34,100  Level FlightAware ADS-B
Thu 08:25:39 PM 46.7600 -51.8890 259° West 496 571 34,100  Level FlightAware ADS-B
Thu 08:26:19 PM 46.7420 -52.0180 259° West 495 570 34,100  Level FlightAware ADS-B
Thu 08:27:03 PM 46.7220 -52.1630 259° West 495 570 34,100  Level FlightAware ADS-B
Thu 08:27:41 PM 46.7050 -52.2870 259° West 493 567 34,100  Level FlightAware ADS-B
Thu 08:28:27 PM 46.6840 -52.4340 258° West 492 566 34,100  Level FlightAware ADS-B
Thu 08:29:09 PM 46.6650 -52.5720 259° West 491 565 34,100  Level FlightAware ADS-B
Thu 08:29:51 PM 46.6450 -52.7080 258° West 489 563 34,100  Level FlightAware ADS-B
Thu 08:30:31 PM 46.6270 -52.8320 258° West 487 560 34,100  Level FlightAware ADS-B
Thu 08:31:13 PM 46.6080 -52.9660 258° West 484 557 34,100  Level FlightAware ADS-B
Thu 08:31:57 PM 46.5870 -53.1100 258° West 483 556 34,100  Level FlightAware ADS-B
Thu 08:32:41 PM 46.5660 -53.2490 258° West 482 555 34,100  Level FlightAware ADS-B
Thu 08:33:21 PM 46.5470 -53.3790 258° West 481 554 34,100  Level FlightAware ADS-B
Thu 08:34:01 PM 46.5280 -53.5030 257° West 481 554 34,100  Level FlightAware ADS-B
Thu 08:34:45 PM 46.5070 -53.6420 258° West 480 552 34,100  Level FlightAware ADS-B
Thu 08:35:21 PM 46.4890 -53.7560 257° West 480 552 34,100  Level FlightAware ADS-B
Thu 08:36:01 PM 46.4700 -53.8820 258° West 480 552 34,100  Level FlightAware ADS-B
Thu 08:36:43 PM 46.4490 -54.0130 257° West 480 552 34,100  Level FlightAware ADS-B
Thu 08:37:49 PM 46.4170 -54.2200 257° West 480 552 34,100  Level FlightAware ADS-B
Thu 08:38:29 PM 46.3970 -54.3430 257° West 480 552 34,100  Level FlightAware ADS-B
Thu 08:39:09 PM 46.3770 -54.4700 257° West 480 552 34,100  Level FlightAware ADS-B
Thu 08:40:09 PM 46.3470 -54.6570 257° West 479 551 34,100  Level FlightAware ADS-B
Thu 08:40:50 PM 46.3270 -54.7800 257° West 479 551 34,100  Level FlightAware ADS-B
Thu 08:41:29 PM 46.3060 -54.9090 257° West 479 551 34,100  Level FlightAware ADS-B
Thu 08:42:19 PM 46.2800 -55.0660 257° West 480 552 34,100  Level FlightAware ADS-B
Thu 08:43:04 PM 46.2560 -55.2050 256° West 479 551 34,100  Level FlightAware ADS-B
Thu 08:43:39 PM 46.2380 -55.3130 256° West 479 551 34,100  Level FlightAware ADS-B
Thu 08:44:19 PM 46.2170 -55.4380 256° West 478 550 34,100  Level FlightAware ADS-B
Thu 08:45:00 PM 46.1960 -55.5600 256° West 478 550 34,100  Level FlightAware ADS-B
Thu 08:45:44 PM 46.1720 -55.7010 256° West 478 550 34,100  Level FlightAware ADS-B
Thu 08:46:24 PM 46.1510 -55.8250 256° West 477 549 34,100  Level FlightAware ADS-B
Thu 08:47:09 PM 46.1260 -55.9640 255° West 475 547 34,100  Level FlightAware ADS-B
Thu 08:47:49 PM 46.1050 -56.0860 256° West 475 547 34,100  Level FlightAware ADS-B
Thu 08:48:29 PM 46.0830 -56.2090 256° West 474 545 34,100  Level FlightAware ADS-B
Thu 08:49:09 PM 46.0630 -56.3240 256° West 473 544 34,100  Level FlightAware ADS-B
Thu 08:49:54 PM 46.0370 -56.4650 255° West 474 545 34,100  Level FlightAware ADS-B
Thu 08:50:30 PM 46.0170 -56.5780 256° West 475 547 34,100  Level FlightAware ADS-B
Thu 08:51:15 PM 45.9930 -56.7110 255° West 476 548 34,100  Level FlightAware ADS-B
Thu 08:52:04 PM 45.9690 -56.8390 255° West 476 548 34,100  Level FlightAware ADS-B
Thu 08:52:57 PM 45.9370 -57.0160 255° West 475 547 34,100  Level FlightAware ADS-B
Thu 08:53:34 PM 45.9190 -57.1120 255° West 475 547 34,100  Level FlightAware ADS-B
Thu 08:54:10 PM 45.9010 -57.2050 254° West 475 547 34,100  Level FlightAware ADS-B
Thu 08:54:58 PM 45.8780 -57.3290 255° West 475 547 34,100  Level FlightAware ADS-B
Thu 08:55:32 PM 45.8460 -57.4970 255° West 474 545 34,100  Level FlightAware ADS-B
Thu 08:56:10 PM 45.8250 -57.6090 255° West 474 545 34,100  Level FlightAware ADS-B
Thu 08:56:56 PM 45.7970 -57.7550 255° West 474 545 34,100  Level FlightAware ADS-B
Thu 08:57:36 PM 45.7730 -57.8770 254° West 473 544 34,100  Level FlightAware ADS-B
Thu 08:58:22 PM 45.7460 -58.0150 254° West 472 543 34,100  Level FlightAware ADS-B
Thu 08:59:02 PM 45.7220 -58.1350 254° West 471 542 34,100  Level FlightAware ADS-B
Thu 08:59:46 PM 45.6970 -58.2650 255° West 471 542 34,100  Level FlightAware ADS-B
Thu 09:00:18 PM 45.6780 -58.3610 254° West 471 542 34,100  Level FlightAware ADS-B
Thu 09:01:02 PM 45.6520 -58.4920 254° West 471 542 34,100  Level FlightAware ADS-B
Thu 09:01:42 PM 45.6270 -58.6130 254° West 471 542 34,100  Level FlightAware ADS-B
Thu 09:02:26 PM 45.6010 -58.7450 254° West 470 541 34,100  Level FlightAware ADS-B
Thu 09:03:06 PM 45.5760 -58.8650 253° West 469 540 34,100  Level FlightAware ADS-B
Thu 09:03:46 PM 45.5520 -58.9840 254° West 468 539 34,100  Level FlightAware ADS-B
Thu 09:04:30 PM 45.5250 -59.1120 253° West 468 539 34,100  Level FlightAware ADS-B
Thu 09:05:14 PM 45.4980 -59.2430 254° West 468 539 34,100  Level FlightAware ADS-B
Thu 09:05:54 PM 45.4730 -59.3610 253° West 467 537 34,100  Level FlightAware ADS-B
Thu 09:06:34 PM 45.4490 -59.4780 254° West 466 536 34,100  Level FlightAware ADS-B
Thu 09:07:18 PM 45.4220 -59.6070 253° West 464 534 34,100  Level FlightAware ADS-B
Thu 09:08:02 PM 45.3940 -59.7360 253° West 464 534 34,100  Level FlightAware ADS-B
Thu 09:08:44 PM 45.3680 -59.8600 253° West 464 534 34,100  Level FlightAware ADS-B
Thu 09:09:24 PM 45.3420 -59.9780 253° West 464 534 34,100  Level FlightAware ADS-B
Thu 09:10:08 PM 45.3140 -60.1070 253° West 464 534 34,100  Level FlightAware ADS-B
Thu 09:10:48 PM 45.2900 -60.2210 253° West 463 533 34,100  Level FlightAware ADS-B
Thu 09:11:30 PM 45.2630 -60.3440 253° West 463 533 34,100  Level FlightAware ADS-B
Thu 09:12:14 PM 45.2340 -60.4730 252° West 463 533 34,100  Level FlightAware ADS-B
Thu 09:12:54 PM 45.2090 -60.5890 253° West 462 532 34,100  Level FlightAware ADS-B
Thu 09:13:38 PM 45.1820 -60.7090 252° West 462 532 34,100  Level FlightAware ADS-B
Thu 09:14:14 PM 45.1570 -60.8180 252° West 462 532 34,100  Level FlightAware ADS-B
Thu 09:15:03 PM 45.1300 -60.9380 252° West 462 532 34,100  Level FlightAware ADS-B
Thu 09:15:39 PM 45.1100 -61.0260 252° West 462 532 34,100  Level FlightAware ADS-B
Thu 09:16:27 PM 45.0830 -61.1440 252° West 462 532 34,100  Level FlightAware ADS-B
Thu 09:17:03 PM 45.0620 -61.2320 251° West 462 532 34,100  Level FlightAware ADS-B
Thu 09:17:51 PM 45.0350 -61.3490 252° West 462 532 34,100  Level FlightAware ADS-B
Thu 09:18:28 PM 45.0150 -61.4400 253° West 462 532 34,100  Level FlightAware ADS-B
Thu 09:19:16 PM 44.9880 -61.5570 252° West 462 532 34,100  Level FlightAware ADS-B
Thu 09:20:04 PM 44.9610 -61.6740 252° West 462 532 34,100  Level FlightAware ADS-B
Thu 09:20:41 PM 44.9400 -61.7640 252° West 462 532 34,100  Level FlightAware ADS-B
Thu 09:21:17 PM 44.9200 -61.8520 252° West 462 532 34,100  Level FlightAware ADS-B
Thu 09:21:53 PM 44.9000 -61.9400 252° West 462 532 34,100  Level FlightAware ADS-B
Thu 09:22:42 PM 44.8720 -62.0600 252° West 462 532 34,100  Level FlightAware ADS-B
Thu 09:23:18 PM 44.8520 -62.1470 252° West 462 532 34,100  Level FlightAware ADS-B
Thu 09:24:06 PM 44.8250 -62.2640 252° West 462 532 34,100  Level FlightAware ADS-B
Thu 09:25:31 PM 44.7070 -62.7350 251° West 457 526 34,100  Level FlightAware ADS-B
Thu 09:26:11 PM 44.6810 -62.8410 251° West 457 526 34,100  Level FlightAware ADS-B
Thu 09:27:06 PM 44.6420 -63.0010 251° West 457 526 34,100  Level FlightAware ADS-B
Thu 09:27:46 PM 44.6150 -63.1090 251° West 457 526 34,100  Level FlightAware ADS-B
Thu 09:28:32 PM 44.5830 -63.2370 251° West 456 525 34,100  Level FlightAware ADS-B
Thu 09:29:13 PM 44.5540 -63.3500 250° West 457 526 34,100  Level FlightAware ADS-B
Thu 09:29:57 PM 44.5210 -63.4820 251° West 456 525 34,100  Level FlightAware ADS-B
Thu 09:30:37 PM 44.4940 -63.5870 250° West 456 525 34,100  Level FlightAware ADS-B
Thu 09:31:21 PM 44.4640 -63.7070 251° West 457 526 34,100  Level FlightAware ADS-B
Thu 09:32:00 PM 44.4380 -63.8080 250° West 456 525 34,100  Level FlightAware ADS-B
Thu 09:32:41 PM 44.4080 -63.9260 250° West 456 525 34,100  Level FlightAware ADS-B
Thu 09:33:18 PM 44.3800 -64.0320 250° West 455 524 34,100  Level FlightAware ADS-B
Thu 09:33:58 PM 44.3510 -64.1460 250° West 454 522 34,100  Level FlightAware ADS-B
Thu 09:34:40 PM 44.3210 -64.2610 250° West 455 524 34,100  Level FlightAware ADS-B
Thu 09:35:18 PM 44.2920 -64.3680 249° West 455 524 34,100  Level FlightAware ADS-B
Thu 09:35:59 PM 44.2630 -64.4780 250° West 456 525 34,100  Level FlightAware ADS-B
Thu 09:36:41 PM 44.2340 -64.5890 250° West 455 524 34,100  Level FlightAware ADS-B
Thu 09:37:18 PM 44.2080 -64.6880 250° West 454 522 34,100  Level FlightAware ADS-B
Thu 09:38:16 PM 44.1620 -64.8570 249° West 448 516 34,100  Level FlightAware ADS-B
Thu 09:38:56 PM 44.1320 -64.9690 250° West 447 514 34,100  Level FlightAware ADS-B
Thu 09:39:36 PM 44.1040 -65.0750 250° West 450 518 34,100  Level FlightAware ADS-B
Thu 09:40:22 PM 44.0700 -65.1980 249° West 446 513 34,100  Level FlightAware ADS-B
Thu 09:41:01 PM 44.0410 -65.3050 249° West 444 511 34,100  Level FlightAware ADS-B
Thu 09:41:41 PM 44.0120 -65.4110 249° West 445 512 34,100  Level FlightAware ADS-B
Thu 09:42:16 PM 43.9860 -65.5060 249° West 441 507 34,100  Level FlightAware ADS-B
Thu 09:43:01 PM 43.9530 -65.6240 249° West 443 510 34,100  Level FlightAware ADS-B
Thu 09:43:41 PM 43.9230 -65.7330 249° West 441 507 34,100  Level FlightAware ADS-B
Thu 09:44:16 PM 43.8980 -65.8240 249° West 444 511 34,100  Level FlightAware ADS-B
Thu 09:45:01 PM 43.8640 -65.9440 249° West 443 510 34,100  Level FlightAware ADS-B
Thu 09:45:41 PM 43.8350 -66.0500 249° West 443 510 34,100  Level FlightAware ADS-B
Thu 09:46:17 PM 43.8210 -66.1520 259° West 447 514 34,100  Level FlightAware ADS-B
Thu 09:46:56 PM 43.8130 -66.2610 264° West 445 512 34,100  Level FlightAware ADS-B
Thu 09:47:41 PM 43.8030 -66.3920 264° West 443 510 34,100  Level FlightAware ADS-B
Thu 09:48:21 PM 43.7960 -66.5030 265° West 442 509 34,100  Level FlightAware ADS-B
Thu 09:49:06 PM 43.7870 -66.6210 264° West 442 509 34,100  Level FlightAware ADS-B
Thu 09:49:46 PM 43.7780 -66.7430 264° West 441 507 34,100  Level FlightAware ADS-B
Thu 09:50:32 PM 43.7690 -66.8710 264° West 441 507 34,100  Level FlightAware ADS-B
Thu 09:51:08 PM 43.7610 -66.9710 264° West 439 505 34,100  Level FlightAware ADS-B
Thu 09:51:47 PM 43.7530 -67.0810 264° West 438 504 34,100  Level FlightAware ADS-B
Thu 09:52:32 PM 43.7390 -67.2040 261° West 434 499 34,100  Level FlightAware ADS-B
Thu 09:53:07 PM 43.7240 -67.3000 258° West 432 497 34,100  Level FlightAware ADS-B
Thu 09:53:47 PM 43.7060 -67.4060 257° West 432 497 34,100  Level FlightAware ADS-B
Thu 09:54:27 PM 43.6870 -67.5150 256° West 432 497 34,100  Level FlightAware ADS-B
Thu 09:55:07 PM 43.6680 -67.6220 256° West 432 497 34,100  Level FlightAware ADS-B
Thu 09:55:47 PM 43.6500 -67.7300 257° West 434 499 34,100  Level FlightAware ADS-B
Thu 09:56:32 PM 43.6280 -67.8550 256° West 434 499 34,100  Level FlightAware ADS-B
Thu 09:57:13 PM 43.6090 -67.9640 256° West 434 499 34,100  Level FlightAware ADS-B
Thu 09:57:52 PM 43.5920 -68.0620 257° West 432 497 34,100  Level FlightAware ADS-B
Thu 09:58:30 PM 43.5770 -68.1480 256° West 432 497 34,100  Level FlightAware ADS-B
Thu 09:59:18 PM 43.5570 -68.2570 256° West 432 497 34,100  Level FlightAware ADS-B
Thu 09:59:55 PM 43.5420 -68.3410 256° West 432 497 34,100  Level FlightAware ADS-B
Thu 10:00:32 PM 43.5270 -68.4260 256° West 432 497 34,100  Level FlightAware ADS-B
Thu 10:01:08 PM 43.5120 -68.5070 256° West 432 497 34,100  Level FlightAware ADS-B
Thu 10:01:57 PM 43.4920 -68.6190 256° West 432 497 34,100  Level FlightAware ADS-B
Thu 10:02:33 PM 43.4770 -68.7010 256° West 432 497 34,100  Level FlightAware ADS-B
Thu 10:03:21 PM 43.4570 -68.8100 256° West 432 497 34,100  Level FlightAware ADS-B
Thu 10:03:57 PM 43.4420 -68.8910 256° West 432 497 34,100  Level FlightAware ADS-B
Thu 10:04:39 PM 43.3970 -69.1450 256° West 429 494 34,100  Level FlightAware ADS-B
Thu 10:05:17 PM 43.3790 -69.2400 255° West 34,100  Level FlightAware ADS-B
Thu 10:05:57 PM 43.3610 -69.3400 256° West 426 490 34,100  Level FlightAware ADS-B
Thu 10:06:37 PM 43.3400 -69.4510 255° West 425 489 34,100  Level FlightAware ADS-B
Thu 10:07:17 PM 43.3190 -69.5600 255° West 427 491 34,100  Level FlightAware ADS-B
Thu 10:08:01 PM 43.2970 -69.6780 256° West 426 490 34,100  Level FlightAware ADS-B
Thu 10:08:41 PM 43.2770 -69.7830 255° West 426 490 34,100  Level FlightAware ADS-B
Thu 10:09:26 PM 43.2540 -69.9000 255° West 428 493 34,100  Level FlightAware ADS-B
Thu 10:10:06 PM 43.2330 -70.0070 255° West 428 493 34,100  Level FlightAware ADS-B
Thu 10:10:58 PM 43.2070 -70.1420 255° West 427 491 34,100  Level FlightAware ADS-B
Thu 10:11:44 PM 43.1830 -70.2640 255° West 425 489 34,100  Level FlightAware ADS-B
Thu 10:12:20 PM 43.1650 -70.3560 255° West 425 489 34,100  Level FlightAware ADS-B
Thu 10:13:00 PM 43.1440 -70.4600 255° West 424 488 34,100  Level FlightAware ADS-B
Thu 10:13:29 PM 43.1300 -70.5340 255° West 424 488 34,100  Level FlightAware ADS-B
Thu 10:14:08 PM 43.1090 -70.6380 255° West 423 487 34,100  Level FlightAware ADS-B
Thu 10:14:48 PM 43.0890 -70.7390 255° West 423 487 34,100  Level FlightAware ADS-B
Thu 10:15:28 PM 43.0680 -70.8430 255° West 422 486 34,100  Level FlightAware ADS-B
Thu 10:16:08 PM 43.0470 -70.9460 254° West 422 486 34,100  Level FlightAware ADS-B
Thu 10:16:46 PM 43.0270 -71.0430 254° West 422 486 34,100  Level FlightAware ADS-B
Thu 10:17:26 PM 43.0070 -71.1450 255° West 422 486 34,100  Level FlightAware ADS-B
Thu 10:18:10 PM 42.9830 -71.2590 254° West 421 484 34,100  Level FlightAware ADS-B
Thu 10:18:50 PM 42.9620 -71.3620 254° West 420 483 34,100  Level FlightAware ADS-B
Thu 10:19:34 PM 42.9390 -71.4730 254° West 419 482 34,100  Level FlightAware ADS-B
Thu 10:20:14 PM 42.9180 -71.5750 254° West 417 480 34,100  Level FlightAware ADS-B
Thu 10:20:59 PM 42.8940 -71.6860 254° West 418 481 34,100  Level FlightAware ADS-B
Thu 10:21:40 PM 42.8720 -71.7930 254° West 419 482 34,100  Level FlightAware ADS-B
Thu 10:22:20 PM 42.8500 -71.8950 254° West 416 479 34,100  Level FlightAware ADS-B
Thu 10:23:04 PM 42.8270 -72.0050 254° West 414 476 34,100  Level FlightAware ADS-B
Thu 10:23:48 PM 42.8030 -72.1160 254° West 413 475 34,100  Level FlightAware ADS-B
Thu 10:24:29 PM 42.7810 -72.2160 253° West 414 476 34,100  Level FlightAware ADS-B
Thu 10:25:08 PM 42.7600 -72.3160 254° West 415 478 34,100  Level FlightAware ADS-B
Thu 10:25:52 PM 42.7360 -72.4270 254° West 416 479 34,100  Level FlightAware ADS-B
Thu 10:26:34 PM 42.7130 -72.5310 253° West 416 479 34,100  Level FlightAware ADS-B
Thu 10:27:17 PM 42.6890 -72.6400 253° West 415 478 34,100  Level FlightAware ADS-B
Thu 10:27:55 PM 42.6680 -72.7350 253° West 413 475 34,100  Level FlightAware ADS-B
Thu 10:28:33 PM 42.6480 -72.8280 254° West 413 475 34,100  Level FlightAware ADS-B
Thu 10:29:13 PM 42.6250 -72.9280 253° West 413 475 34,100  Level FlightAware ADS-B
Thu 10:29:58 PM 42.6020 -73.0340 254° West 412 474 34,100  Level FlightAware ADS-B
Thu 10:30:31 PM 42.5850 -73.1080 253° West 412 474 34,100  Level FlightAware ADS-B
Thu 10:31:20 PM 42.5550 -73.2410 253° West 409 471 34,100  Level FlightAware ADS-B
Thu 10:32:00 PM 42.5340 -73.3320 253° West 410 472 34,100  Level FlightAware ADS-B
Thu 10:32:46 PM 42.5070 -73.4520 253° West 412 474 34,100  Level FlightAware ADS-B
Thu 10:33:20 PM 42.4870 -73.5400 253° West 413 475 34,100  Level FlightAware ADS-B
Thu 10:34:02 PM 42.4640 -73.6390 253° West 411 473 34,100  Level FlightAware ADS-B
Thu 10:34:46 PM 42.4390 -73.7490 253° West 411 473 34,100  Level FlightAware ADS-B
Thu 10:35:30 PM 42.4150 -73.8500 252° West 409 471 34,100  Level FlightAware ADS-B
Thu 10:36:16 PM 42.3920 -73.9520 253° West 410 472 34,100  Level FlightAware ADS-B
Thu 10:36:58 PM 42.3630 -74.0750 252° West 414 476 34,100  Level FlightAware ADS-B
Thu 10:37:36 PM 42.3410 -74.1660 252° West 413 475 34,100  Level FlightAware ADS-B
Thu 10:38:24 PM 42.3120 -74.2880 252° West 413 475 34,100  Level FlightAware ADS-B
Thu 10:39:04 PM 42.2890 -74.3860 252° West 412 474 34,100  Level FlightAware ADS-B
Thu 10:39:31 PM 42.2733 -74.4524 252° West 412 474 34,100  Level FlightAware ADS-B
Thu 10:40:03 PM 42.2542 -74.5321 252° West 412 474 34,100  Level FlightAware ADS-B
Thu 10:40:33 PM 42.2365 -74.6061 252° West 412 474 34,100  Level FlightAware ADS-B
Thu 10:41:04 PM 42.2186 -74.6804 252° West 412 474 34,100  Level FlightAware ADS-B
Thu 10:41:36 PM 42.1996 -74.7586 252° West 412 474 34,100  Level FlightAware ADS-B
Thu 10:42:09 PM 42.1802 -74.8389 252° West 412 474 34,100  Level FlightAware ADS-B
Thu 10:42:39 PM 42.1623 -74.9125 252° West 412 474 34,100  Level FlightAware ADS-B
Thu 10:43:11 PM 42.1433 -74.9902 252° West 411 473 34,100  Level FlightAware ADS-B
Thu 10:43:44 PM 42.1236 -75.0708 252° West 411 473 34,100  Level FlightAware ADS-B
Thu 10:44:14 PM 42.1056 -75.1441 252° West 410 472 34,100  Level FlightAware ADS-B
Thu 10:44:50 PM 42.0839 -75.2321 252° West 408 470 34,100  Level FlightAware ADS-B
Thu 10:45:24 PM 42.0638 -75.3132 252° West 408 470 34,100  Level FlightAware ADS-B
Thu 10:45:48 PM 42.0509 -75.3712 253° West 411 473 34,100  Level FlightAware ADS-B
Thu 10:46:20 PM 42.0366 -75.4511 256° West 411 473 34,100  Level FlightAware ADS-B
Thu 10:46:41 PM 42.0269 -75.5032 256° West 409 471 34,100  Level FlightAware ADS-B
Thu 10:47:48 PM 41.9940 -75.6690 255° West 409 471 34,100  Level FlightAware ADS-B
Thu 10:48:32 PM 41.9730 -75.7770 255° West 410 472 34,100  Level FlightAware ADS-B
Thu 10:48:44 PM 41.9670 -75.8057 254° West 412 474 34,100  Level FlightAware ADS-B
Thu 10:49:19 PM 41.9493 -75.8940 255° West 412 474 34,100  Level FlightAware ADS-B
Thu 10:49:52 PM 41.9331 -75.9743 255° West 413 475 34,100  Level FlightAware ADS-B
Thu 10:50:22 PM 41.9181 -76.0487 255° West 413 475 34,100  Level FlightAware ADS-B
Thu 10:50:52 PM 41.9031 -76.1235 255° West 412 474 34,100  Level FlightAware ADS-B
Thu 10:51:25 PM 41.8869 -76.2039 255° West 412 474 34,100  Level FlightAware ADS-B
Thu 10:52:00 PM 41.8690 -76.2915 255° West 411 473 34,100  Level FlightAware ADS-B
Thu 10:52:32 PM 41.8530 -76.3697 255° West 411 473 34,100  Level FlightAware ADS-B
Thu 10:53:22 PM 41.8279 -76.4925 255° West 410 472 34,100  Level FlightAware ADS-B
Thu 10:53:54 PM 41.8117 -76.5706 254° West 411 473 34,100  Level FlightAware ADS-B
Thu 10:54:27 PM 41.7946 -76.6531 254° West 411 473 34,100  Level FlightAware ADS-B
Thu 10:55:04 PM 41.7761 -76.7422 254° West 410 472 34,100  Level FlightAware ADS-B
Thu 10:55:41 PM 41.7569 -76.8344 254° West 410 472 34,100  Level FlightAware ADS-B
Thu 10:56:25 PM 41.7345 -76.9413 254° West 411 473 34,100  Level FlightAware ADS-B
Thu 10:57:27 PM 41.7040 -77.0850 254° West 409 471 34,100  Level FlightAware ADS-B
Thu 10:57:48 PM 41.6918 -77.1434 254° West 411 473 34,100  Level FlightAware ADS-B
Thu 10:58:47 PM 41.6640 -77.2750 254° West 404 465 34,100  Level FlightAware ADS-B
Thu 10:59:27 PM 41.6430 -77.3720 254° West 403 464 34,100  Level FlightAware ADS-B
Thu 11:00:08 PM 41.6220 -77.4700 254° West 403 464 34,100  Level FlightAware ADS-B
Thu 11:00:52 PM 41.5990 -77.5770 254° West 403 464 34,100  Level FlightAware ADS-B
Thu 11:01:32 PM 41.5770 -77.6730 253° West 400 460 34,100  Level FlightAware ADS-B
Thu 11:02:17 PM 41.5470 -77.7740 248° West 398 458 34,100  Level FlightAware ADS-B
Thu 11:02:57 PM 41.5170 -77.8670 247° West 398 458 34,100  Level FlightAware ADS-B
Thu 11:03:32 PM 41.4920 -77.9400 245° Southwest 396 456 34,100  Level FlightAware ADS-B
Thu 11:04:12 PM 41.4610 -78.0350 246° West 396 456 34,100  Level FlightAware ADS-B
Thu 11:04:57 PM 41.4280 -78.1360 246° West 395 455 34,100  Level FlightAware ADS-B
Thu 11:05:32 PM 41.4030 -78.2140 247° West 396 456 34,100  Level FlightAware ADS-B
Thu 11:06:17 PM 41.3700 -78.3140 246° West 397 457 34,100  Level FlightAware ADS-B
Thu 11:06:57 PM 41.3400 -78.4040 246° West 397 457 34,100  Level FlightAware ADS-B
Thu 11:07:32 PM 41.3140 -78.4830 246° West 398 458 34,100  Level FlightAware ADS-B
Thu 11:08:12 PM 41.2840 -78.5720 246° West 401 461 34,100  Level FlightAware ADS-B
Thu 11:08:57 PM 41.2510 -78.6740 247° West 403 464 34,100  Level FlightAware ADS-B
Thu 11:09:37 PM 41.2200 -78.7650 246° West 404 465 34,100  Level FlightAware ADS-B
Thu 11:10:17 PM 41.1890 -78.8580 246° West 404 465 34,100  Level FlightAware ADS-B
Thu 11:10:57 PM 41.1590 -78.9490 246° West 405 466 34,100  Level FlightAware ADS-B
Thu 11:11:42 PM 41.1240 -79.0510 246° West 404 465 34,100  Level FlightAware ADS-B
Thu 11:12:17 PM 41.0990 -79.1270 246° West 404 465 34,100  Level FlightAware ADS-B
Thu 11:13:02 PM 41.0640 -79.2290 246° West 406 467 34,100  Level FlightAware ADS-B
Thu 11:13:42 PM 41.0320 -79.3230 246° West 407 468 34,100  Level FlightAware ADS-B
Thu 11:14:17 PM 41.0060 -79.4000 246° West 408 470 34,100  Level FlightAware ADS-B
Thu 11:14:57 PM 40.9760 -79.4880 246° West 408 470 34,100  Level FlightAware ADS-B
Thu 11:15:39 PM 40.9430 -79.5840 246° West 406 467 34,100  Level FlightAware ADS-B
Thu 11:16:22 PM 40.9090 -79.6830 246° West 407 468 34,100  Level FlightAware ADS-B
Thu 11:17:04 PM 40.8720 -79.7870 245° Southwest 405 466 34,100  Level FlightAware ADS-B
Thu 11:17:50 PM 40.8370 -79.8900 246° West 405 466 34,100  Level FlightAware ADS-B
Thu 11:18:30 PM 40.8050 -79.9810 245° Southwest 404 465 34,100  Level FlightAware ADS-B
Thu 11:19:04 PM 40.7780 -80.0580 245° Southwest 405 466 34,100  Level FlightAware ADS-B
Thu 11:19:48 PM 40.7440 -80.1550 245° Southwest 406 467 34,100  Level FlightAware ADS-B
Thu 11:20:28 PM 40.7120 -80.2470 245° Southwest 406 467 34,100  Level FlightAware ADS-B
Thu 11:21:08 PM 40.6800 -80.3370 245° Southwest 408 470 34,100  Level FlightAware ADS-B
Thu 11:21:44 PM 40.6510 -80.4180 245° Southwest 408 470 34,100  Level FlightAware ADS-B
Thu 11:22:28 PM 40.6170 -80.5170 246° West 409 471 34,100  Level FlightAware ADS-B
Thu 11:23:04 PM 40.5870 -80.5980 244° Southwest 410 472 34,100  Level FlightAware ADS-B
Thu 11:23:44 PM 40.5550 -80.6890 245° Southwest 411 473 34,100  Level FlightAware ADS-B
Thu 11:24:28 PM 40.5200 -80.7880 245° Southwest 414 476 34,100  Level FlightAware ADS-B
Thu 11:25:08 PM 40.4860 -80.8800 244° Southwest 415 478 34,100  Level FlightAware ADS-B
Thu 11:25:50 PM 40.4520 -80.9750 245° Southwest 413 475 34,100  Level FlightAware ADS-B
Thu 11:26:34 PM 40.4150 -81.0760 244° Southwest 414 476 34,100  Level FlightAware ADS-B
Thu 11:27:14 PM 40.3820 -81.1680 245° Southwest 415 478 34,100  Level FlightAware ADS-B
Thu 11:27:57 PM 40.3470 -81.2640 244° Southwest 417 480 34,100  Level FlightAware ADS-B
Thu 11:28:34 PM 40.3160 -81.3490 244° Southwest 420 483 34,100  Level FlightAware ADS-B
Thu 11:29:14 PM 40.2820 -81.4420 244° Southwest 422 486 34,100  Level FlightAware ADS-B
Thu 11:29:54 PM 40.2480 -81.5340 244° Southwest 424 488 34,100  Level FlightAware ADS-B
Thu 11:30:30 PM 40.2180 -81.6160 244° Southwest 424 488 34,100  Level FlightAware ADS-B
Thu 11:31:16 PM 40.1780 -81.7230 244° Southwest 427 491 34,100  Level FlightAware ADS-B
Thu 11:31:55 PM 40.1450 -81.8130 244° Southwest 432 497 34,100  Level FlightAware ADS-B
Thu 11:32:34 PM 40.1090 -81.9080 244° Southwest 434 499 34,100  Level FlightAware ADS-B
Thu 11:33:20 PM 40.0690 -82.0160 244° Southwest 439 505 34,100  Level FlightAware ADS-B
Thu 11:34:00 PM 40.0330 -82.1120 244° Southwest 442 509 34,100  Level FlightAware ADS-B
Thu 11:34:44 PM 39.9930 -82.2180 244° Southwest 445 512 34,100  Level FlightAware ADS-B
Thu 11:35:16 PM 39.9640 -82.2950 244° Southwest 447 514 34,100  Level FlightAware ADS-B
Thu 11:36:00 PM 39.9240 -82.4010 244° Southwest 449 517 34,100  Level FlightAware ADS-B
Thu 11:36:41 PM 39.8860 -82.5000 243° Southwest 450 518 34,100  Level FlightAware ADS-B
Thu 11:37:14 PM 39.8570 -82.5770 244° Southwest 449 517 34,100  Level FlightAware ADS-B
Thu 11:38:00 PM 39.8120 -82.6940 243° Southwest 448 516 34,100  Level FlightAware ADS-B
Thu 11:38:42 PM 39.7730 -82.7950 243° Southwest 445 512 34,100  Level FlightAware ADS-B
Thu 11:39:22 PM 39.7360 -82.8920 244° Southwest 444 511 34,100 -71 Level FlightAware ADS-B
Thu 11:40:06 PM 39.6960 -82.9960 243° Southwest 441 507 34,000 -643 Descending FlightAware ADS-B
Thu 11:40:46 PM 39.6600 -83.0900 244° Southwest 444 511 33,200 -1,571 Descending FlightAware ADS-B
Thu 11:41:30 PM 39.6180 -83.1970 243° Southwest 461 531 31,800 -1,610 Descending FlightAware ADS-B
Thu 11:42:08 PM 39.5800 -83.2920 243° Southwest 465 535 31,000 -1,244 Descending FlightAware ADS-B
Thu 11:42:52 PM 39.5380 -83.4020 244° Southwest 471 542 30,100 -614 Descending FlightAware ADS-B
Thu 11:43:36 PM 39.4950 -83.5120 243° Southwest 472 543 30,100  Level FlightAware ADS-B
Thu 11:44:18 PM 39.4520 -83.6180 242° Southwest 474 545 30,100  Level FlightAware ADS-B
Thu 11:44:58 PM 39.4070 -83.7190 240° Southwest 479 551 30,100  Level FlightAware ADS-B
Thu 11:45:45 PM 39.3520 -83.8300 237° Southwest 483 556 30,100  Level FlightAware ADS-B
Thu 11:46:16 PM 39.3140 -83.9030 236° Southwest 484 557 30,100 -240 Level FlightAware ADS-B
Thu 11:47:00 PM 39.2580 -84.0110 236° Southwest 461 531 29,800 -1,299 Descending FlightAware ADS-B
Thu 11:47:53 PM 39.2000 -84.1200 236° Southwest 453 521 28,000 -1,200 Descending FlightAware ADS-B
Thu 11:48:30 PM 39.1630 -84.1900 236° Southwest 453 521 28,000 -2,148 Level FlightAware ADS-B
Thu 11:49:14 PM 39.1110 -84.2910 236° Southwest 436 502 25,100 -2,071 Descending FlightAware ADS-B
Thu 11:49:54 PM 39.0720 -84.3640 235° Southwest 436 502 25,100 -2,242 Level FlightAware ADS-B
Thu 11:50:53 PM 38.9940 -84.5130 236° Southwest 417 480 21,400 -2,460 Descending FlightAware ADS-B
Thu 11:51:34 PM 38.9580 -84.5810 236° Southwest 413 475 21,000 -1,895 Descending FlightAware ADS-B
Thu 11:52:28 PM 38.9000 -84.6900 236° Southwest 413 475 18,400 -1,891 Descending FlightAware ADS-B
Thu 11:53:06 PM 38.8650 -84.7580 237° Southwest 395 455 18,100 -2,132 Descending FlightAware ADS-B
Thu 11:53:44 PM 38.8190 -84.8430 235° Southwest 365 420 15,700 -2,634 Descending FlightAware ADS-B
Thu 11:54:28 PM 38.7800 -84.9160 236° Southwest 364 419 14,500 -1,571 Descending FlightAware ADS-B
Thu 11:55:08 PM 38.7290 -84.9810 225° Southwest 355 409 13,500 -1,333 Descending FlightAware ADS-B
Thu 11:55:40 PM 38.6850 -85.0240 217° Southwest 376 433 12,900 -1,120 Descending FlightAware ADS-B
Thu 11:56:23 PM 38.6310 -85.0760 217° Southwest 373 429 12,100 -571 Descending FlightAware ADS-B
Thu 11:57:25 PM 38.5570 -85.1470 217° Southwest 357 411 11,900 -1,096 Descending FlightAware ADS-B
Thu 11:58:18 PM 38.5060 -85.2510 238° Southwest 341 392 10,000 -1,500 Descending FlightAware ADS-B
Thu 11:58:45 PM 38.4870 -85.2860 235° Southwest 341 392 9,900 -120 Descending FlightAware ADS-B
Thu 11:59:08 PM 38.4620 -85.3320 235° Southwest 339 390 9,900  Level FlightAware ADS-B
Thu 11:59:38 PM 38.4330 -85.3850 235° Southwest 338 389 9,900  Level FlightAware ADS-B
Fri 12:00:19 AM 38.3960 -85.4530 235° Southwest 340 391 9,900  Level FlightAware ADS-B
Fri 12:00:47 AM 38.3710 -85.5000 236° Southwest 340 391 9,900  Level FlightAware ADS-B
Fri 12:01:10 AM 38.3500 -85.5370 234° Southwest 340 391 9,900  Level FlightAware ADS-B
Fri 12:01:27 AM 38.3340 -85.5660 235° Southwest 340 391 9,900  Level FlightAware ADS-B
Fri 12:01:55 AM 38.3090 -85.6130 236° Southwest 340 391 9,900  Level FlightAware ADS-B
Fri 12:02:23 AM 38.2870 -85.6540 236° Southwest 324 373 9,900  Level FlightAware ADS-B
Fri 12:02:48 AM 38.2670 -85.6900 235° Southwest 304 350 9,900 -240 Level FlightAware ADS-B
Fri 12:03:13 AM 38.2460 -85.7290 236° Southwest 295 339 9,700 -764 Descending FlightAware ADS-B
Fri 12:03:43 AM 38.2230 -85.7700 234° Southwest 290 334 9,200 -1,100 Descending FlightAware ADS-B
Fri 12:04:13 AM 38.2000 -85.8120 235° Southwest 286 329 8,600 -1,200 Descending FlightAware ADS-B
Fri 12:04:28 AM 38.1850 -85.8290 222° Southwest 287 330 8,300 -1,200 Descending FlightAware ADS-B
Fri 12:04:38 AM 38.1740 -85.8350 203° Southwest 287 330 8,100 -1,333 Descending FlightAware ADS-B
Fri 12:05:13 AM 38.1280 -85.8270 172° South 283 326 7,300 -1,309 Descending FlightAware ADS-B
Fri 12:05:33 AM 38.1020 -85.8160 162° South 282 325 6,900 -933 Descending FlightAware ADS-B
Fri 12:05:58 AM 38.0710 -85.8050 164° South 273 314 6,600 -857 Descending FlightAware ADS-B
Fri 12:06:29 AM 38.0330 -85.7910 164° South 248 285 6,100 -837 Descending FlightAware ADS-B
Fri 12:06:41 AM 38.0210 -85.7870 165° South 240 276 6,000 -95 Descending FlightAware ADS-B
Fri 12:07:32 AM 37.9760 -85.7720 165° South 211 243 6,000 -476 Level FlightAware ADS-B
Fri 12:07:44 AM 37.9650 -85.7680 164° South 186 214 5,500 -1,571 Descending FlightAware ADS-B
Fri 12:08:14 AM 37.9390 -85.7580 163° South 180 207 4,900 -800 Descending FlightAware ADS-B
Fri 12:08:29 AM 37.9340 -85.7450 116° Southeast 175 201 4,900  Level FlightAware ADS-B
Fri 12:08:54 AM 37.9370 -85.7190 82° East 174 200 4,900  Level FlightAware ADS-B
Fri 12:09:06 AM 37.9390 -85.7060 79° East 173 199 4,900  Level FlightAware ADS-B
Fri 12:09:16 AM 37.9410 -85.6970 74° East 172 198 4,900 -250 Level FlightAware ADS-B
Fri 12:09:30 AM 37.9490 -85.6870 45° Northeast 171 197 4,800 -1,000 Descending FlightAware ADS-B
Fri 12:09:58 AM 37.9710 -85.6810 12° North 179 206 4,200 -1,200 Descending FlightAware ADS-B
Fri 12:10:10 AM 37.9800 -85.6810 360° North 184 212 4,000 -1,286 Descending FlightAware ADS-B
Fri 12:10:26 AM 37.9950 -85.6860 345° North 179 206 3,600 -1,200 Descending FlightAware ADS-B
Fri 12:10:40 AM 38.0060 -85.6890 348° North 165 190 3,400 -774 Descending FlightAware ADS-B
Fri 12:11:28 AM 38.0400 -85.7000 346° North 157 181 2,800 -789 Descending FlightAware ADS-B
Fri 12:11:56 AM 38.0590 -85.7070 344° North 157 181 2,400 -923 Descending FlightAware ADS-B
Fri 12:12:20 AM 38.0760 -85.7120 347° North 151 174 2,000 -787 Descending FlightAware ADS-B
Fri 12:12:57 AM 38.1000 -85.7200 345° North 135 155 1,600 -625 Descending FlightAware ADS-B
Fri 12:13:08 AM 38.1060 -85.7220 345° North 135 155 1,500 -769 Descending FlightAware ADS-B
Fri 12:13:36 AM 38.1240 -85.7280 345° North 140 161 1,100 -750 Descending FlightAware ADS-B
Fri 12:14:04 AM 38.1420 -85.7340 345° North 139 160 800 -682 Descending FlightAware ADS-B
Fri 12:14:20 AM 38.1520 -85.7370 347° North 138 159 600 -750 Descending FlightAware ADS-B
Fri 12:15:18 AM 38.1780 -85.7460 345° North 86 99 -621 Descending FlightAware ADS-B
Fri 12:15:25 AM 38.1760 -85.7450 159° South 16 18  Level FlightAware ADS-B
Fri 12:15:36 AM 38.1760 -85.7440 90° East 31 36  Level FlightAware ADS-B
Fri 12:15:48 AM 38.1770 -85.7430 38° Northeast 31 36  Level FlightAware ADS-B
Fri 12:16:16 AM 38.1750 -85.7420 159° South 16 18  Level FlightAware ADS-B
Fri 12:16:56 AM 38.1710 -85.7410 169° South 21 24  Level FlightAware ADS-B
Fri 12:17:09 AM 38.1700 -85.7410 180° South 23 26  Level FlightAware ADS-B
Fri 12:17:45 AM 38.1660 -85.7390 159° South 15 17  Level FlightAware ADS-B
Fri 12:18:14 AM 38.1650 -85.7380 142° Southeast 31 36  Level FlightAware ADS-B
Fri 12:18:55 AM 38.1640 -85.7330 104° East 34 39  Level FlightAware ADS-B

Login

Don't have an account? Register now (free) for customized features, flight alerts, and more!